sensor_id;sensor_type;location;lat;lon;timestamp;P1;durP1;ratioP1;P2;durP2;ratioP2
7843;SDS011;3967;48.702;9.326;2022-09-21T00:01:18;5.47;;;3.90;;
7843;SDS011;3967;48.702;9.326;2022-09-21T00:03:47;3.90;;;3.60;;
7843;SDS011;3967;48.702;9.326;2022-09-21T00:06:18;5.23;;;3.50;;
7843;SDS011;3967;48.702;9.326;2022-09-21T00:08:46;6.10;;;4.13;;
7843;SDS011;3967;48.702;9.326;2022-09-21T00:11:16;4.17;;;3.77;;
7843;SDS011;3967;48.702;9.326;2022-09-21T00:13:44;8.30;;;4.43;;
7843;SDS011;3967;48.702;9.326;2022-09-21T00:16:12;3.80;;;3.37;;
7843;SDS011;3967;48.702;9.326;2022-09-21T00:18:41;7.00;;;4.00;;
7843;SDS011;3967;48.702;9.326;2022-09-21T00:21:12;6.47;;;4.43;;
7843;SDS011;3967;48.702;9.326;2022-09-21T00:23:39;4.10;;;3.70;;
7843;SDS011;3967;48.702;9.326;2022-09-21T00:26:15;5.40;;;4.07;;
7843;SDS011;3967;48.702;9.326;2022-09-21T00:28:43;7.70;;;4.00;;
7843;SDS011;3967;48.702;9.326;2022-09-21T00:31:11;4.93;;;3.93;;
7843;SDS011;3967;48.702;9.326;2022-09-21T00:33:40;4.37;;;3.97;;
7843;SDS011;3967;48.702;9.326;2022-09-21T00:36:09;5.07;;;4.30;;
7843;SDS011;3967;48.702;9.326;2022-09-21T00:38:38;5.63;;;4.40;;
7843;SDS011;3967;48.702;9.326;2022-09-21T00:41:06;6.20;;;4.13;;
7843;SDS011;3967;48.702;9.326;2022-09-21T00:43:34;7.23;;;4.47;;
7843;SDS011;3967;48.702;9.326;2022-09-21T00:46:10;4.83;;;4.30;;
7843;SDS011;3967;48.702;9.326;2022-09-21T00:49:07;4.03;;;3.63;;
7843;SDS011;3967;48.702;9.326;2022-09-21T00:51:35;4.50;;;3.97;;
7843;SDS011;3967;48.702;9.326;2022-09-21T00:54:04;5.20;;;4.07;;
7843;SDS011;3967;48.702;9.326;2022-09-21T00:56:34;4.97;;;3.87;;
7843;SDS011;3967;48.702;9.326;2022-09-21T00:59:02;7.13;;;4.47;;
7843;SDS011;3967;48.702;9.326;2022-09-21T01:01:29;5.30;;;4.33;;
7843;SDS011;3967;48.702;9.326;2022-09-21T01:03:56;6.37;;;4.30;;
7843;SDS011;3967;48.702;9.326;2022-09-21T01:06:23;5.20;;;4.70;;
7843;SDS011;3967;48.702;9.326;2022-09-21T01:08:51;6.73;;;4.80;;
7843;SDS011;3967;48.702;9.326;2022-09-21T01:23:08;4.03;;;3.60;;
7843;SDS011;3967;48.702;9.326;2022-09-21T01:31:07;5.47;;;4.70;;
7843;SDS011;3967;48.702;9.326;2022-09-21T01:33:42;6.93;;;4.67;;
7843;SDS011;3967;48.702;9.326;2022-09-21T01:36:15;5.20;;;4.33;;
7843;SDS011;3967;48.702;9.326;2022-09-21T01:38:49;4.80;;;3.83;;
7843;SDS011;3967;48.702;9.326;2022-09-21T01:41:21;3.93;;;3.57;;
7843;SDS011;3967;48.702;9.326;2022-09-21T01:44:12;4.40;;;3.53;;
7843;SDS011;3967;48.702;9.326;2022-09-21T01:46:40;4.20;;;3.80;;
7843;SDS011;3967;48.702;9.326;2022-09-21T01:49:09;5.70;;;4.10;;
7843;SDS011;3967;48.702;9.326;2022-09-21T01:51:48;4.73;;;4.10;;
7843;SDS011;3967;48.702;9.326;2022-09-21T01:54:21;4.33;;;3.93;;
7843;SDS011;3967;48.702;9.326;2022-09-21T01:57:06;5.67;;;3.97;;
7843;SDS011;3967;48.702;9.326;2022-09-21T01:59:49;4.03;;;3.63;;
7843;SDS011;3967;48.702;9.326;2022-09-21T02:05:11;4.50;;;3.83;;
7843;SDS011;3967;48.702;9.326;2022-09-21T02:07:41;4.47;;;3.87;;
7843;SDS011;3967;48.702;9.326;2022-09-21T02:10:09;4.83;;;4.20;;
7843;SDS011;3967;48.702;9.326;2022-09-21T02:12:42;4.47;;;4.03;;
7843;SDS011;3967;48.702;9.326;2022-09-21T02:15:09;5.50;;;3.63;;
7843;SDS011;3967;48.702;9.326;2022-09-21T02:17:45;6.90;;;3.77;;
7843;SDS011;3967;48.702;9.326;2022-09-21T02:20:25;5.87;;;3.90;;
7843;SDS011;3967;48.702;9.326;2022-09-21T02:23:16;5.37;;;4.23;;
7843;SDS011;3967;48.702;9.326;2022-09-21T02:25:53;6.37;;;4.50;;
7843;SDS011;3967;48.702;9.326;2022-09-21T02:30:59;5.83;;;4.10;;
7843;SDS011;3967;48.702;9.326;2022-09-21T02:33:37;7.77;;;4.20;;
7843;SDS011;3967;48.702;9.326;2022-09-21T02:36:27;4.53;;;4.00;;
7843;SDS011;3967;48.702;9.326;2022-09-21T02:41:51;6.30;;;4.30;;
7843;SDS011;3967;48.702;9.326;2022-09-21T02:44:41;7.80;;;4.30;;
7843;SDS011;3967;48.702;9.326;2022-09-21T02:47:18;4.27;;;3.87;;
7843;SDS011;3967;48.702;9.326;2022-09-21T02:49:53;4.30;;;3.90;;
7843;SDS011;3967;48.702;9.326;2022-09-21T02:52:26;5.40;;;4.50;;
7843;SDS011;3967;48.702;9.326;2022-09-21T02:54:55;6.53;;;3.80;;
7843;SDS011;3967;48.702;9.326;2022-09-21T02:57:23;4.67;;;4.20;;
7843;SDS011;3967;48.702;9.326;2022-09-21T02:59:51;4.20;;;3.90;;
7843;SDS011;3967;48.702;9.326;2022-09-21T03:02:19;5.33;;;4.30;;
7843;SDS011;3967;48.702;9.326;2022-09-21T03:04:46;5.53;;;4.57;;
7843;SDS011;3967;48.702;9.326;2022-09-21T03:07:14;5.43;;;4.40;;
7843;SDS011;3967;48.702;9.326;2022-09-21T03:09:41;4.40;;;4.00;;
7843;SDS011;3967;48.702;9.326;2022-09-21T03:12:09;6.13;;;4.17;;
7843;SDS011;3967;48.702;9.326;2022-09-21T03:14:35;4.40;;;4.00;;
7843;SDS011;3967;48.702;9.326;2022-09-21T03:17:02;4.03;;;3.63;;
7843;SDS011;3967;48.702;9.326;2022-09-21T03:19:29;4.50;;;4.10;;
7843;SDS011;3967;48.702;9.326;2022-09-21T03:21:55;4.07;;;3.70;;
7843;SDS011;3967;48.702;9.326;2022-09-21T03:24:22;4.03;;;3.73;;
7843;SDS011;3967;48.702;9.326;2022-09-21T03:27:07;3.97;;;3.67;;
7843;SDS011;3967;48.702;9.326;2022-09-21T03:29:34;4.00;;;3.13;;
7843;SDS011;3967;48.702;9.326;2022-09-21T03:32:01;4.20;;;3.80;;
7843;SDS011;3967;48.702;9.326;2022-09-21T03:34:28;5.87;;;4.23;;
7843;SDS011;3967;48.702;9.326;2022-09-21T03:36:57;6.30;;;4.00;;
7843;SDS011;3967;48.702;9.326;2022-09-21T03:39:24;4.97;;;4.20;;
7843;SDS011;3967;48.702;9.326;2022-09-21T03:41:51;4.50;;;4.10;;
7843;SDS011;3967;48.702;9.326;2022-09-21T03:44:22;4.30;;;3.90;;
7843;SDS011;3967;48.702;9.326;2022-09-21T03:46:50;4.93;;;4.43;;
7843;SDS011;3967;48.702;9.326;2022-09-21T03:49:18;3.60;;;3.30;;
7843;SDS011;3967;48.702;9.326;2022-09-21T03:51:46;4.60;;;3.67;;
7843;SDS011;3967;48.702;9.326;2022-09-21T03:54:12;3.37;;;3.07;;
7843;SDS011;3967;48.702;9.326;2022-09-21T03:56:39;3.97;;;3.33;;
7843;SDS011;3967;48.702;9.326;2022-09-21T03:59:06;3.40;;;3.10;;
7843;SDS011;3967;48.702;9.326;2022-09-21T04:01:39;3.43;;;2.93;;
7843;SDS011;3967;48.702;9.326;2022-09-21T04:04:05;3.20;;;3.00;;
7843;SDS011;3967;48.702;9.326;2022-09-21T04:06:32;3.10;;;2.90;;
7843;SDS011;3967;48.702;9.326;2022-09-21T04:08:59;3.53;;;2.60;;
7843;SDS011;3967;48.702;9.326;2022-09-21T04:11:28;4.10;;;3.00;;
7843;SDS011;3967;48.702;9.326;2022-09-21T04:13:55;5.03;;;3.17;;
7843;SDS011;3967;48.702;9.326;2022-09-21T04:16:25;3.07;;;2.80;;
7843;SDS011;3967;48.702;9.326;2022-09-21T04:18:53;2.80;;;2.60;;
7843;SDS011;3967;48.702;9.326;2022-09-21T04:21:20;2.80;;;2.57;;
7843;SDS011;3967;48.702;9.326;2022-09-21T04:23:47;2.43;;;2.23;;
7843;SDS011;3967;48.702;9.326;2022-09-21T04:26:25;3.90;;;2.60;;
7843;SDS011;3967;48.702;9.326;2022-09-21T04:28:53;3.47;;;3.10;;
7843;SDS011;3967;48.702;9.326;2022-09-21T04:31:21;2.87;;;2.67;;
7843;SDS011;3967;48.702;9.326;2022-09-21T04:33:50;3.30;;;2.93;;
7843;SDS011;3967;48.702;9.326;2022-09-21T04:36:18;4.37;;;3.00;;
7843;SDS011;3967;48.702;9.326;2022-09-21T04:38:46;4.50;;;3.50;;
7843;SDS011;3967;48.702;9.326;2022-09-21T04:41:14;3.60;;;3.07;;
7843;SDS011;3967;48.702;9.326;2022-09-21T04:43:41;3.20;;;2.90;;
7843;SDS011;3967;48.702;9.326;2022-09-21T04:46:10;3.37;;;3.17;;
7843;SDS011;3967;48.702;9.326;2022-09-21T04:48:38;3.30;;;2.90;;
7843;SDS011;3967;48.702;9.326;2022-09-21T04:51:06;2.83;;;2.63;;
7843;SDS011;3967;48.702;9.326;2022-09-21T04:53:34;3.70;;;3.40;;
7843;SDS011;3967;48.702;9.326;2022-09-21T04:56:03;3.50;;;3.03;;
7843;SDS011;3967;48.702;9.326;2022-09-21T04:58:31;4.07;;;3.67;;
7843;SDS011;3967;48.702;9.326;2022-09-21T05:00:58;4.00;;;3.33;;
7843;SDS011;3967;48.702;9.326;2022-09-21T05:03:25;3.70;;;3.07;;
7843;SDS011;3967;48.702;9.326;2022-09-21T05:05:52;2.80;;;2.60;;
7843;SDS011;3967;48.702;9.326;2022-09-21T05:08:22;3.90;;;3.20;;
7843;SDS011;3967;48.702;9.326;2022-09-21T05:11:10;3.57;;;2.97;;
7843;SDS011;3967;48.702;9.326;2022-09-21T05:13:38;4.03;;;3.70;;
7843;SDS011;3967;48.702;9.326;2022-09-21T05:16:05;3.53;;;3.23;;
7843;SDS011;3967;48.702;9.326;2022-09-21T05:18:32;3.40;;;2.97;;
7843;SDS011;3967;48.702;9.326;2022-09-21T05:20:59;4.20;;;3.33;;
7843;SDS011;3967;48.702;9.326;2022-09-21T05:23:27;3.47;;;2.70;;
7843;SDS011;3967;48.702;9.326;2022-09-21T05:25:55;3.07;;;2.77;;
7843;SDS011;3967;48.702;9.326;2022-09-21T05:28:23;3.60;;;3.30;;
7843;SDS011;3967;48.702;9.326;2022-09-21T05:30:58;3.13;;;2.83;;
7843;SDS011;3967;48.702;9.326;2022-09-21T05:33:48;3.63;;;3.30;;
7843;SDS011;3967;48.702;9.326;2022-09-21T05:39:10;4.17;;;3.10;;
7843;SDS011;3967;48.702;9.326;2022-09-21T05:41:37;4.50;;;3.53;;
7843;SDS011;3967;48.702;9.326;2022-09-21T05:44:04;3.93;;;3.53;;
7843;SDS011;3967;48.702;9.326;2022-09-21T05:49:22;5.20;;;4.70;;
7843;SDS011;3967;48.702;9.326;2022-09-21T05:57:27;8.73;;;4.70;;
7843;SDS011;3967;48.702;9.326;2022-09-21T06:00:12;7.13;;;5.20;;
7843;SDS011;3967;48.702;9.326;2022-09-21T06:05:42;73.30;;;6.00;;
7843;SDS011;3967;48.702;9.326;2022-09-21T06:08:10;10.63;;;5.23;;
7843;SDS011;3967;48.702;9.326;2022-09-21T06:10:36;5.80;;;4.77;;
7843;SDS011;3967;48.702;9.326;2022-09-21T06:13:03;80.60;;;6.00;;
7843;SDS011;3967;48.702;9.326;2022-09-21T06:15:30;5.33;;;4.73;;
7843;SDS011;3967;48.702;9.326;2022-09-21T06:17:59;6.43;;;5.00;;
7843;SDS011;3967;48.702;9.326;2022-09-21T06:20:26;5.77;;;5.07;;
7843;SDS011;3967;48.702;9.326;2022-09-21T06:22:58;6.07;;;5.47;;
7843;SDS011;3967;48.702;9.326;2022-09-21T06:25:32;14.30;;;5.70;;
7843;SDS011;3967;48.702;9.326;2022-09-21T06:28:08;7.53;;;5.53;;
7843;SDS011;3967;48.702;9.326;2022-09-21T06:30:37;7.17;;;6.20;;
7843;SDS011;3967;48.702;9.326;2022-09-21T06:33:07;10.27;;;6.30;;
7843;SDS011;3967;48.702;9.326;2022-09-21T06:35:34;73.80;;;8.73;;
7843;SDS011;3967;48.702;9.326;2022-09-21T06:38:07;103.43;;;8.30;;
7843;SDS011;3967;48.702;9.326;2022-09-21T06:40:34;8.57;;;5.87;;
7843;SDS011;3967;48.702;9.326;2022-09-21T06:43:03;8.30;;;6.93;;
7843;SDS011;3967;48.702;9.326;2022-09-21T06:45:30;9.00;;;7.43;;
7843;SDS011;3967;48.702;9.326;2022-09-21T06:47:57;11.70;;;6.90;;
7843;SDS011;3967;48.702;9.326;2022-09-21T06:50:23;12.00;;;6.73;;
7843;SDS011;3967;48.702;9.326;2022-09-21T06:52:50;67.80;;;8.83;;
7843;SDS011;3967;48.702;9.326;2022-09-21T06:55:17;9.37;;;7.70;;
7843;SDS011;3967;48.702;9.326;2022-09-21T06:57:44;15.93;;;6.83;;
7843;SDS011;3967;48.702;9.326;2022-09-21T07:00:11;15.90;;;7.20;;
7843;SDS011;3967;48.702;9.326;2022-09-21T07:02:42;33.83;;;8.60;;
7843;SDS011;3967;48.702;9.326;2022-09-21T07:05:10;10.30;;;7.47;;
7843;SDS011;3967;48.702;9.326;2022-09-21T07:07:37;11.23;;;7.20;;
7843;SDS011;3967;48.702;9.326;2022-09-21T07:10:05;8.80;;;6.70;;
7843;SDS011;3967;48.702;9.326;2022-09-21T07:12:39;8.03;;;6.73;;
7843;SDS011;3967;48.702;9.326;2022-09-21T07:15:07;11.10;;;6.67;;
7843;SDS011;3967;48.702;9.326;2022-09-21T07:17:36;8.63;;;6.50;;
7843;SDS011;3967;48.702;9.326;2022-09-21T07:20:04;9.07;;;5.83;;
7843;SDS011;3967;48.702;9.326;2022-09-21T07:22:33;8.27;;;6.53;;
7843;SDS011;3967;48.702;9.326;2022-09-21T07:24:59;9.37;;;6.83;;
7843;SDS011;3967;48.702;9.326;2022-09-21T07:27:27;9.37;;;6.23;;
7843;SDS011;3967;48.702;9.326;2022-09-21T07:29:56;6.80;;;6.10;;
7843;SDS011;3967;48.702;9.326;2022-09-21T07:32:23;7.80;;;5.60;;
7843;SDS011;3967;48.702;9.326;2022-09-21T07:34:51;7.20;;;5.73;;
7843;SDS011;3967;48.702;9.326;2022-09-21T07:37:22;6.53;;;5.83;;
7843;SDS011;3967;48.702;9.326;2022-09-21T07:39:50;6.87;;;5.83;;
7843;SDS011;3967;48.702;9.326;2022-09-21T07:42:18;6.57;;;5.87;;
7843;SDS011;3967;48.702;9.326;2022-09-21T07:45:11;7.17;;;5.87;;
7843;SDS011;3967;48.702;9.326;2022-09-21T07:48:13;7.37;;;5.90;;
7843;SDS011;3967;48.702;9.326;2022-09-21T07:51:13;6.17;;;4.90;;
7843;SDS011;3967;48.702;9.326;2022-09-21T07:53:41;5.77;;;5.17;;
7843;SDS011;3967;48.702;9.326;2022-09-21T07:56:12;6.07;;;4.83;;
7843;SDS011;3967;48.702;9.326;2022-09-21T07:58:41;6.17;;;4.57;;
7843;SDS011;3967;48.702;9.326;2022-09-21T08:01:27;6.87;;;5.30;;
7843;SDS011;3967;48.702;9.326;2022-09-21T08:03:55;5.20;;;4.50;;
7843;SDS011;3967;48.702;9.326;2022-09-21T08:06:24;5.47;;;4.97;;
7843;SDS011;3967;48.702;9.326;2022-09-21T08:08:52;7.47;;;4.77;;
7843;SDS011;3967;48.702;9.326;2022-09-21T08:11:23;7.13;;;4.87;;
7843;SDS011;3967;48.702;9.326;2022-09-21T08:13:57;5.60;;;4.70;;
7843;SDS011;3967;48.702;9.326;2022-09-21T08:16:25;6.37;;;3.93;;
7843;SDS011;3967;48.702;9.326;2022-09-21T08:18:54;4.07;;;3.67;;
7843;SDS011;3967;48.702;9.326;2022-09-21T08:21:21;7.00;;;4.00;;
7843;SDS011;3967;48.702;9.326;2022-09-21T08:23:48;4.17;;;3.37;;
7843;SDS011;3967;48.702;9.326;2022-09-21T08:26:16;4.00;;;3.50;;
7843;SDS011;3967;48.702;9.326;2022-09-21T08:28:48;3.87;;;3.57;;
7843;SDS011;3967;48.702;9.326;2022-09-21T08:31:17;3.23;;;2.93;;
7843;SDS011;3967;48.702;9.326;2022-09-21T08:33:46;3.80;;;3.50;;
7843;SDS011;3967;48.702;9.326;2022-09-21T08:36:14;4.30;;;3.37;;
7843;SDS011;3967;48.702;9.326;2022-09-21T08:38:41;3.90;;;3.33;;
7843;SDS011;3967;48.702;9.326;2022-09-21T08:41:17;3.77;;;3.03;;
7843;SDS011;3967;48.702;9.326;2022-09-21T08:43:51;4.80;;;2.70;;
7843;SDS011;3967;48.702;9.326;2022-09-21T08:46:39;3.60;;;1.90;;
7843;SDS011;3967;48.702;9.326;2022-09-21T08:49:09;2.70;;;1.70;;
7843;SDS011;3967;48.702;9.326;2022-09-21T08:52:02;3.30;;;1.60;;
7843;SDS011;3967;48.702;9.326;2022-09-21T08:57:11;5.57;;;2.00;;
7843;SDS011;3967;48.702;9.326;2022-09-21T08:59:48;2.37;;;1.50;;
7843;SDS011;3967;48.702;9.326;2022-09-21T09:22:18;2.80;;;1.00;;
7843;SDS011;3967;48.702;9.326;2022-09-21T09:24:49;1.80;;;1.00;;
7843;SDS011;3967;48.702;9.326;2022-09-21T09:27:21;2.57;;;1.00;;
7843;SDS011;3967;48.702;9.326;2022-09-21T09:30:23;3.10;;;0.93;;
7843;SDS011;3967;48.702;9.326;2022-09-21T09:35:34;1.60;;;1.00;;
7843;SDS011;3967;48.702;9.326;2022-09-21T09:38:16;2.23;;;1.00;;
7843;SDS011;3967;48.702;9.326;2022-09-21T09:41:19;2.50;;;0.97;;
7843;SDS011;3967;48.702;9.326;2022-09-21T09:49:30;1.30;;;0.83;;
7843;SDS011;3967;48.702;9.326;2022-09-21T09:51:59;2.03;;;0.67;;
7843;SDS011;3967;48.702;9.326;2022-09-21T09:54:26;2.27;;;0.70;;
7843;SDS011;3967;48.702;9.326;2022-09-21T09:56:59;1.80;;;0.70;;
7843;SDS011;3967;48.702;9.326;2022-09-21T10:02:34;1.07;;;0.60;;
7843;SDS011;3967;48.702;9.326;2022-09-21T10:05:18;5.30;;;1.20;;
7843;SDS011;3967;48.702;9.326;2022-09-21T10:07:58;1.23;;;0.80;;
7843;SDS011;3967;48.702;9.326;2022-09-21T10:13:01;1.00;;;0.50;;
7843;SDS011;3967;48.702;9.326;2022-09-21T10:15:31;0.73;;;0.57;;
7843;SDS011;3967;48.702;9.326;2022-09-21T10:18:04;1.10;;;0.57;;
7843;SDS011;3967;48.702;9.326;2022-09-21T10:20:31;0.80;;;0.47;;
7843;SDS011;3967;48.702;9.326;2022-09-21T10:22:58;0.80;;;0.40;;
7843;SDS011;3967;48.702;9.326;2022-09-21T10:25:26;1.60;;;0.50;;
7843;SDS011;3967;48.702;9.326;2022-09-21T10:27:52;0.67;;;0.53;;
7843;SDS011;3967;48.702;9.326;2022-09-21T10:30:34;0.80;;;0.50;;
7843;SDS011;3967;48.702;9.326;2022-09-21T10:33:06;0.70;;;0.40;;
7843;SDS011;3967;48.702;9.326;2022-09-21T10:35:49;1.13;;;0.60;;
7843;SDS011;3967;48.702;9.326;2022-09-21T10:38:18;1.70;;;0.57;;
7843;SDS011;3967;48.702;9.326;2022-09-21T10:40:52;0.90;;;0.30;;
7843;SDS011;3967;48.702;9.326;2022-09-21T10:43:22;0.87;;;0.30;;
7843;SDS011;3967;48.702;9.326;2022-09-21T10:46:09;0.57;;;0.30;;
7843;SDS011;3967;48.702;9.326;2022-09-21T10:48:36;0.90;;;0.40;;
7843;SDS011;3967;48.702;9.326;2022-09-21T10:51:03;0.30;;;0.30;;
7843;SDS011;3967;48.702;9.326;2022-09-21T10:53:31;1.47;;;0.43;;
7843;SDS011;3967;48.702;9.326;2022-09-21T10:59:29;1.03;;;0.33;;
7843;SDS011;3967;48.702;9.326;2022-09-21T11:01:36;0.77;;;0.50;;
7843;SDS011;3967;48.702;9.326;2022-09-21T11:06:50;0.47;;;0.30;;
7843;SDS011;3967;48.702;9.326;2022-09-21T11:09:29;1.27;;;0.47;;
7843;SDS011;3967;48.702;9.326;2022-09-21T11:17:51;1.43;;;0.60;;
7843;SDS011;3967;48.702;9.326;2022-09-21T11:25:59;0.97;;;0.40;;
7843;SDS011;3967;48.702;9.326;2022-09-21T11:37:17;2.93;;;0.60;;
7843;SDS011;3967;48.702;9.326;2022-09-21T11:42:50;2.03;;;0.50;;
7843;SDS011;3967;48.702;9.326;2022-09-21T11:45:39;0.30;;;0.30;;
7843;SDS011;3967;48.702;9.326;2022-09-21T11:53:30;1.33;;;0.43;;
7843;SDS011;3967;48.702;9.326;2022-09-21T12:15:29;1.33;;;0.40;;
7843;SDS011;3967;48.702;9.326;2022-09-21T12:18:10;1.20;;;0.40;;
7843;SDS011;3967;48.702;9.326;2022-09-21T12:20:46;0.30;;;0.30;;
7843;SDS011;3967;48.702;9.326;2022-09-21T12:25:49;0.77;;;0.20;;
7843;SDS011;3967;48.702;9.326;2022-09-21T12:30:51;0.70;;;0.40;;
7843;SDS011;3967;48.702;9.326;2022-09-21T12:36:29;0.30;;;0.30;;
7843;SDS011;3967;48.702;9.326;2022-09-21T12:39:10;0.57;;;0.30;;
7843;SDS011;3967;48.702;9.326;2022-09-21T12:42:01;0.57;;;0.30;;
7843;SDS011;3967;48.702;9.326;2022-09-21T12:44:33;0.30;;;0.30;;
7843;SDS011;3967;48.702;9.326;2022-09-21T12:50:10;1.90;;;0.40;;
7843;SDS011;3967;48.702;9.326;2022-09-21T12:52:51;2.43;;;0.77;;
7843;SDS011;3967;48.702;9.326;2022-09-21T12:55:27;0.83;;;0.20;;
7843;SDS011;3967;48.702;9.326;2022-09-21T13:00:54;0.20;;;0.20;;
7843;SDS011;3967;48.702;9.326;2022-09-21T13:07:22;0.17;;;0.17;;
7843;SDS011;3967;48.702;9.326;2022-09-21T13:09:37;0.43;;;0.30;;
7843;SDS011;3967;48.702;9.326;2022-09-21T13:12:09;0.63;;;0.50;;
7843;SDS011;3967;48.702;9.326;2022-09-21T13:14:43;3.70;;;0.37;;
7843;SDS011;3967;48.702;9.326;2022-09-21T13:17:22;1.03;;;0.47;;
7843;SDS011;3967;48.702;9.326;2022-09-21T13:20:00;0.50;;;0.23;;
7843;SDS011;3967;48.702;9.326;2022-09-21T13:22:39;0.80;;;0.40;;
7843;SDS011;3967;48.702;9.326;2022-09-21T13:25:06;2.83;;;0.30;;
7843;SDS011;3967;48.702;9.326;2022-09-21T13:41:03;0.97;;;0.40;;
7843;SDS011;3967;48.702;9.326;2022-09-21T13:49:12;1.37;;;0.27;;
7843;SDS011;3967;48.702;9.326;2022-09-21T13:54:15;0.70;;;0.30;;
7843;SDS011;3967;48.702;9.326;2022-09-21T13:56:45;1.23;;;0.37;;
7843;SDS011;3967;48.702;9.326;2022-09-21T13:59:22;0.23;;;0.23;;
7843;SDS011;3967;48.702;9.326;2022-09-21T14:01:51;0.93;;;0.30;;
7843;SDS011;3967;48.702;9.326;2022-09-21T14:04:25;0.20;;;0.20;;
7843;SDS011;3967;48.702;9.326;2022-09-21T14:07:03;0.30;;;0.30;;
7843;SDS011;3967;48.702;9.326;2022-09-21T14:12:23;4.53;;;0.60;;
7843;SDS011;3967;48.702;9.326;2022-09-21T14:20:34;1.80;;;0.50;;
7843;SDS011;3967;48.702;9.326;2022-09-21T14:28:14;0.83;;;0.40;;
7843;SDS011;3967;48.702;9.326;2022-09-21T14:30:52;0.60;;;0.30;;
7843;SDS011;3967;48.702;9.326;2022-09-21T14:33:23;0.63;;;0.23;;
7843;SDS011;3967;48.702;9.326;2022-09-21T14:35:55;0.80;;;0.47;;
7843;SDS011;3967;48.702;9.326;2022-09-21T14:40:55;0.30;;;0.30;;
7843;SDS011;3967;48.702;9.326;2022-09-21T14:43:30;0.73;;;0.43;;
7843;SDS011;3967;48.702;9.326;2022-09-21T15:02:51;0.50;;;0.50;;
7843;SDS011;3967;48.702;9.326;2022-09-21T15:05:37;0.93;;;0.30;;
7843;SDS011;3967;48.702;9.326;2022-09-21T15:08:22;0.83;;;0.20;;
7843;SDS011;3967;48.702;9.326;2022-09-21T15:11:37;0.50;;;0.30;;
7843;SDS011;3967;48.702;9.326;2022-09-21T15:16:39;0.50;;;0.50;;
7843;SDS011;3967;48.702;9.326;2022-09-21T15:21:42;0.77;;;0.77;;
7843;SDS011;3967;48.702;9.326;2022-09-21T15:27:02;0.27;;;0.27;;
7843;SDS011;3967;48.702;9.326;2022-09-21T15:29:35;1.30;;;0.60;;
7843;SDS011;3967;48.702;9.326;2022-09-21T15:32:03;2.10;;;0.40;;
7843;SDS011;3967;48.702;9.326;2022-09-21T15:34:31;1.60;;;0.23;;
7843;SDS011;3967;48.702;9.326;2022-09-21T15:37:05;1.30;;;0.40;;
7843;SDS011;3967;48.702;9.326;2022-09-21T15:39:37;0.40;;;0.40;;
7843;SDS011;3967;48.702;9.326;2022-09-21T15:44:33;0.47;;;0.47;;
7843;SDS011;3967;48.702;9.326;2022-09-21T15:47:03;2.67;;;0.40;;
7843;SDS011;3967;48.702;9.326;2022-09-21T15:49:34;0.30;;;0.30;;
7843;SDS011;3967;48.702;9.326;2022-09-21T15:52:08;1.57;;;0.40;;
7843;SDS011;3967;48.702;9.326;2022-09-21T15:54:58;1.17;;;0.40;;
7843;SDS011;3967;48.702;9.326;2022-09-21T15:57:47;1.07;;;0.47;;
7843;SDS011;3967;48.702;9.326;2022-09-21T16:03:01;1.33;;;0.30;;
7843;SDS011;3967;48.702;9.326;2022-09-21T16:05:43;0.43;;;0.40;;
7843;SDS011;3967;48.702;9.326;2022-09-21T16:08:17;1.07;;;0.43;;
7843;SDS011;3967;48.702;9.326;2022-09-21T16:10:44;3.10;;;0.30;;
7843;SDS011;3967;48.702;9.326;2022-09-21T16:13:14;0.37;;;0.30;;
7843;SDS011;3967;48.702;9.326;2022-09-21T16:16:10;2.10;;;0.50;;
7843;SDS011;3967;48.702;9.326;2022-09-21T16:21:48;1.27;;;0.57;;
7843;SDS011;3967;48.702;9.326;2022-09-21T16:26:35;0.30;;;0.30;;
7843;SDS011;3967;48.702;9.326;2022-09-21T16:31:33;0.60;;;0.33;;
7843;SDS011;3967;48.702;9.326;2022-09-21T16:34:03;1.13;;;0.40;;
7843;SDS011;3967;48.702;9.326;2022-09-21T16:36:43;1.80;;;0.40;;
7843;SDS011;3967;48.702;9.326;2022-09-21T16:39:11;0.33;;;0.30;;
7843;SDS011;3967;48.702;9.326;2022-09-21T16:41:42;0.93;;;0.50;;
7843;SDS011;3967;48.702;9.326;2022-09-21T16:44:15;2.43;;;0.50;;
7843;SDS011;3967;48.702;9.326;2022-09-21T16:46:54;2.10;;;0.40;;
7843;SDS011;3967;48.702;9.326;2022-09-21T16:49:24;1.57;;;0.73;;
7843;SDS011;3967;48.702;9.326;2022-09-21T16:51:55;2.50;;;0.50;;
7843;SDS011;3967;48.702;9.326;2022-09-21T16:54:24;1.40;;;0.43;;
7843;SDS011;3967;48.702;9.326;2022-09-21T16:56:53;1.00;;;0.50;;
7843;SDS011;3967;48.702;9.326;2022-09-21T16:59:22;3.50;;;0.60;;
7843;SDS011;3967;48.702;9.326;2022-09-21T17:01:50;0.93;;;0.63;;
7843;SDS011;3967;48.702;9.326;2022-09-21T17:04:23;0.50;;;0.37;;
7843;SDS011;3967;48.702;9.326;2022-09-21T17:06:51;0.50;;;0.40;;
7843;SDS011;3967;48.702;9.326;2022-09-21T17:09:24;0.57;;;0.50;;
7843;SDS011;3967;48.702;9.326;2022-09-21T17:11:55;1.20;;;0.57;;
7843;SDS011;3967;48.702;9.326;2022-09-21T17:14:26;0.93;;;0.50;;
7843;SDS011;3967;48.702;9.326;2022-09-21T17:17:16;1.87;;;0.70;;
7843;SDS011;3967;48.702;9.326;2022-09-21T17:19:49;1.37;;;0.70;;
7843;SDS011;3967;48.702;9.326;2022-09-21T17:22:17;0.80;;;0.57;;
7843;SDS011;3967;48.702;9.326;2022-09-21T17:24:48;0.90;;;0.70;;
7843;SDS011;3967;48.702;9.326;2022-09-21T17:27:22;1.73;;;0.60;;
7843;SDS011;3967;48.702;9.326;2022-09-21T17:29:51;3.87;;;1.23;;
7843;SDS011;3967;48.702;9.326;2022-09-21T17:32:21;1.00;;;0.90;;
7843;SDS011;3967;48.702;9.326;2022-09-21T17:37:42;0.90;;;0.90;;
7843;SDS011;3967;48.702;9.326;2022-09-21T17:40:09;1.80;;;0.57;;
7843;SDS011;3967;48.702;9.326;2022-09-21T17:42:38;0.63;;;0.40;;
7843;SDS011;3967;48.702;9.326;2022-09-21T17:47:41;2.90;;;0.40;;
7843;SDS011;3967;48.702;9.326;2022-09-21T17:52:38;0.80;;;0.60;;
7843;SDS011;3967;48.702;9.326;2022-09-21T17:55:25;0.87;;;0.60;;
7843;SDS011;3967;48.702;9.326;2022-09-21T17:57:57;0.40;;;0.40;;
7843;SDS011;3967;48.702;9.326;2022-09-21T18:03:30;1.83;;;1.73;;
7843;SDS011;3967;48.702;9.326;2022-09-21T18:06:02;0.70;;;0.70;;
7843;SDS011;3967;48.702;9.326;2022-09-21T18:08:30;0.97;;;0.90;;
7843;SDS011;3967;48.702;9.326;2022-09-21T18:18:51;0.70;;;0.70;;
7843;SDS011;3967;48.702;9.326;2022-09-21T18:21:30;0.90;;;0.90;;
7843;SDS011;3967;48.702;9.326;2022-09-21T18:24:20;0.87;;;0.53;;
7843;SDS011;3967;48.702;9.326;2022-09-21T18:26:47;0.60;;;0.60;;
7843;SDS011;3967;48.702;9.326;2022-09-21T18:29:28;1.43;;;0.53;;
7843;SDS011;3967;48.702;9.326;2022-09-21T18:37:40;1.43;;;0.80;;
7843;SDS011;3967;48.702;9.326;2022-09-21T18:40:33;0.53;;;0.50;;
7843;SDS011;3967;48.702;9.326;2022-09-21T18:43:30;3.67;;;0.97;;
7843;SDS011;3967;48.702;9.326;2022-09-21T18:46:00;0.80;;;0.80;;
7843;SDS011;3967;48.702;9.326;2022-09-21T18:49:01;2.23;;;0.90;;
7843;SDS011;3967;48.702;9.326;2022-09-21T18:51:56;1.00;;;0.90;;
7843;SDS011;3967;48.702;9.326;2022-09-21T18:54:30;0.90;;;0.80;;
7843;SDS011;3967;48.702;9.326;2022-09-21T18:56:57;0.97;;;0.90;;
7843;SDS011;3967;48.702;9.326;2022-09-21T18:59:24;1.43;;;1.23;;
7843;SDS011;3967;48.702;9.326;2022-09-21T19:01:56;1.17;;;0.90;;
7843;SDS011;3967;48.702;9.326;2022-09-21T19:04:24;0.83;;;0.83;;
7843;SDS011;3967;48.702;9.326;2022-09-21T19:15:19;3.50;;;0.90;;
7843;SDS011;3967;48.702;9.326;2022-09-21T19:18:13;1.67;;;1.27;;
7843;SDS011;3967;48.702;9.326;2022-09-21T19:25:47;2.40;;;1.63;;
7843;SDS011;3967;48.702;9.326;2022-09-21T19:28:34;1.70;;;1.07;;
7843;SDS011;3967;48.702;9.326;2022-09-21T19:31:09;1.77;;;0.97;;
7843;SDS011;3967;48.702;9.326;2022-09-21T19:33:38;1.90;;;0.90;;
7843;SDS011;3967;48.702;9.326;2022-09-21T19:36:20;1.10;;;1.00;;
7843;SDS011;3967;48.702;9.326;2022-09-21T19:38:49;1.30;;;1.20;;
7843;SDS011;3967;48.702;9.326;2022-09-21T19:49:16;1.50;;;1.40;;
7843;SDS011;3967;48.702;9.326;2022-09-21T19:54:21;2.33;;;1.47;;
7843;SDS011;3967;48.702;9.326;2022-09-21T19:59:57;3.63;;;2.33;;
7843;SDS011;3967;48.702;9.326;2022-09-21T20:02:25;2.40;;;1.90;;
7843;SDS011;3967;48.702;9.326;2022-09-21T20:05:00;2.53;;;1.80;;
7843;SDS011;3967;48.702;9.326;2022-09-21T20:21:45;2.50;;;1.60;;
7843;SDS011;3967;48.702;9.326;2022-09-21T20:27:31;3.77;;;2.03;;
7843;SDS011;3967;48.702;9.326;2022-09-21T20:30:13;5.70;;;2.53;;
7843;SDS011;3967;48.702;9.326;2022-09-21T20:32:42;3.50;;;2.67;;
7843;SDS011;3967;48.702;9.326;2022-09-21T20:35:17;3.30;;;2.40;;
7843;SDS011;3967;48.702;9.326;2022-09-21T20:37:45;5.50;;;2.70;;
7843;SDS011;3967;48.702;9.326;2022-09-21T20:40:12;2.83;;;2.40;;